YKAE weather

Kalannie Airport
Western Australia, Australia

Public forecast

Using degrees Celsius for public forecast. Weather courtesy of forecast.io.

METAR (pilot weather report)

Closest report is RAAF Base Pearce, 97.0 nm (179.7 km) SW. Retrieved 2019/04/25 22:30 UTC (0 seconds ago):

YPEA 252230Z 08009KT CAVOK 18/08 Q1025 FM0000 07015G28KT CAVOK FM2230 MOD TURB BLW 3000FT TILL 0100

TAF (pilot weather forecast)

Closest forecast is RAAF Base Pearce, 97.0 nm (179.7 km) SW. Retrieved 2019/04/25 18:00 UTC (4 hours ago):

TAF YPEA 251632Z 2518/2612 09012KT CAVOK FM252300 08014G24KT CAVOK FM260400 08012KT CAVOK